createdAt,value
2022-08-18T00:01:23.954Z,99642.44
2022-08-18T00:03:59.148Z,99640.91
2022-08-18T00:06:32.429Z,99643.84
2022-08-18T00:09:03.118Z,99649.44
2022-08-18T00:11:41.374Z,99641.03
2022-08-18T00:14:21.395Z,99643.13
2022-08-18T00:16:53.394Z,99651.41
2022-08-18T00:19:47.520Z,99651.09
2022-08-18T00:22:20.313Z,99658.78
2022-08-18T00:24:52.086Z,99670.25
2022-08-18T00:27:23.234Z,99669.81
2022-08-18T00:29:54.402Z,99670.94
2022-08-18T00:32:29.854Z,99672.03
2022-08-18T00:35:05.869Z,99677.38
2022-08-18T00:37:34.837Z,99673.88
2022-08-18T00:40:04.746Z,99680.03
2022-08-18T00:42:34.548Z,99674.00
2022-08-18T00:45:06.251Z,99684.91
2022-08-18T00:47:42.856Z,99685.72
2022-08-18T00:50:22.872Z,99687.38
2022-08-18T00:52:55.744Z,99687.75
2022-08-18T00:55:26.456Z,99682.94
2022-08-18T00:58:02.230Z,99685.84
2022-08-18T01:00:33.029Z,99689.50
2022-08-18T01:03:05.844Z,99701.25
2022-08-18T01:05:43.671Z,99713.00
2022-08-18T01:08:17.112Z,99710.44
2022-08-18T01:10:59.289Z,99706.97
2022-08-18T01:13:30.911Z,99710.56
2022-08-18T01:15:59.814Z,99712.28
2022-08-18T01:18:45.928Z,99702.59
2022-08-18T01:21:39.077Z,99707.09
2022-08-18T01:24:13.257Z,99711.84
2022-08-18T01:26:50.731Z,99713.78
2022-08-18T01:29:21.089Z,99717.66
2022-08-18T01:31:55.705Z,99718.75
2022-08-18T01:34:29.040Z,99724.38
2022-08-18T01:36:58.976Z,99720.97
2022-08-18T01:41:22.912Z,99721.50
2022-08-18T01:42:19.711Z,99730.25
2022-08-18T01:44:51.736Z,99727.03
2022-08-18T01:47:21.710Z,99725.19
2022-08-18T01:49:50.556Z,99720.59
2022-08-18T01:52:21.455Z,99723.38
2022-08-18T01:54:53.354Z,99720.97
2022-08-18T01:57:22.470Z,99722.19
2022-08-18T01:59:52.025Z,99726.06
2022-08-18T02:02:26.014Z,99724.06
2022-08-18T02:05:02.624Z,99714.78
2022-08-18T02:07:35.936Z,99726.13
2022-08-18T02:10:11.843Z,99731.81
2022-08-18T02:12:41.964Z,99742.59
2022-08-18T02:15:12.126Z,99736.66
2022-08-18T02:17:42.138Z,99725.22
2022-08-18T02:20:15.229Z,99725.09
2022-08-18T02:22:46.155Z,99732.09
2022-08-18T02:25:18.089Z,99726.19
2022-08-18T02:27:47.622Z,99731.94
2022-08-18T02:30:19.089Z,99729.41
2022-08-18T02:32:48.718Z,99733.44
2022-08-18T02:35:17.757Z,99736.56
2022-08-18T02:37:48.487Z,99733.34
2022-08-18T02:40:19.524Z,99729.00
2022-08-18T02:42:49.977Z,99735.13
2022-08-18T02:45:21.564Z,99732.97
2022-08-18T02:47:53.821Z,99726.56
2022-08-18T02:50:24.072Z,99729.81
2022-08-18T02:52:54.705Z,99739.47
2022-08-18T02:55:26.990Z,99737.78
2022-08-18T02:57:56.880Z,99736.22
2022-08-18T03:00:25.884Z,99743.72
2022-08-18T03:02:55.399Z,99743.38
2022-08-18T03:05:24.594Z,99738.69
2022-08-18T03:07:54.299Z,99739.03
2022-08-18T03:10:31.642Z,99744.34
2022-08-18T03:13:04.292Z,99739.03
2022-08-18T03:15:33.691Z,99741.34
2022-08-18T03:18:03.351Z,99744.81
2022-08-18T03:20:35.444Z,99745.69
2022-08-18T03:23:09.594Z,99753.41
2022-08-18T03:25:45.774Z,99758.38
2022-08-18T03:28:17.927Z,99760.31
2022-08-18T03:30:47.905Z,99756.69
2022-08-18T03:33:17.567Z,99754.03
2022-08-18T03:35:47.398Z,99759.22
2022-08-18T03:38:17.627Z,99755.81
2022-08-18T03:40:54.447Z,99757.53
2022-08-18T03:43:50.810Z,99760.19
2022-08-18T03:46:16.925Z,99754.03
2022-08-18T03:48:47.682Z,99765.34
2022-08-18T03:51:19.008Z,99766.44
2022-08-18T03:53:49.712Z,99764.75
2022-08-18T03:56:23.698Z,99766.72
2022-08-18T03:58:55.389Z,99764.06
2022-08-18T04:01:27.492Z,99762.22
2022-08-18T04:03:58.456Z,99763.19
2022-08-18T04:06:32.416Z,99769.09
2022-08-18T04:09:04.842Z,99768.00
2022-08-18T04:11:37.531Z,99767.06
2022-08-18T04:14:07.806Z,99771.28
2022-08-18T04:16:41.661Z,99771.28
2022-08-18T04:19:14.205Z,99764.88
2022-08-18T04:21:56.607Z,99765.34
2022-08-18T04:24:28.254Z,99769.69
2022-08-18T04:27:03.260Z,99758.94
2022-08-18T04:29:34.537Z,99754.34
2022-08-18T04:32:05.303Z,99751.34
2022-08-18T04:34:35.318Z,99754.47
2022-08-18T04:37:05.295Z,99751.41
2022-08-18T04:39:35.161Z,99764.09
2022-08-18T04:42:06.749Z,99754.19
2022-08-18T04:44:38.026Z,99753.69
2022-08-18T04:47:09.475Z,99755.88
2022-08-18T04:49:39.769Z,99755.59
2022-08-18T04:52:39.867Z,99760.44
2022-08-18T04:55:11.855Z,99762.56
2022-08-18T04:57:42.906Z,99772.56
2022-08-18T05:00:14.268Z,99764.22
2022-08-18T05:02:44.474Z,99766.25
2022-08-18T05:05:14.606Z,99770.78
2022-08-18T05:07:48.116Z,99768.91
2022-08-18T05:10:18.641Z,99759.72
2022-08-18T05:12:50.607Z,99765.94
2022-08-18T05:15:20.637Z,99765.41
2022-08-18T05:17:51.234Z,99763.19
2022-08-18T05:20:23.742Z,99759.31
2022-08-18T05:22:52.734Z,99775.59
2022-08-18T05:25:22.316Z,99776.38
2022-08-18T05:27:53.419Z,99777.69
2022-08-18T05:30:23.011Z,99773.25
2022-08-18T05:32:52.922Z,99779.47
2022-08-18T05:35:26.734Z,99783.44
2022-08-18T05:38:18.977Z,99782.97
2022-08-18T05:41:03.787Z,99788.59
2022-08-18T05:43:35.043Z,99796.78
2022-08-18T05:46:07.488Z,99796.66
2022-08-18T05:48:42.688Z,99789.81
2022-08-18T05:51:18.138Z,99788.94
2022-08-18T05:54:05.326Z,99796.69
2022-08-18T05:56:49.806Z,99786.31
2022-08-18T05:59:25.216Z,99787.41
2022-08-18T06:02:02.353Z,99792.03
2022-08-18T06:04:42.904Z,99788.63
2022-08-18T06:07:15.956Z,99789.25
2022-08-18T06:09:51.474Z,99796.91
2022-08-18T06:12:29.661Z,99792.59
2022-08-18T06:15:06.464Z,99793.09
2022-08-18T06:17:56.575Z,99787.38
2022-08-18T06:20:32.372Z,99785.22
2022-08-18T06:23:15.307Z,99795.41
2022-08-18T06:25:59.470Z,99795.34
2022-08-18T06:28:38.058Z,99806.66
2022-08-18T06:31:27.478Z,99813.84
2022-08-18T06:34:07.806Z,99810.63
2022-08-18T06:36:47.051Z,99804.03
2022-08-18T06:39:24.712Z,99807.00
2022-08-18T06:41:55.334Z,99803.75
2022-08-18T06:44:35.181Z,99809.66
2022-08-18T06:47:16.731Z,99807.25
2022-08-18T06:49:51.487Z,99808.22
2022-08-18T06:52:29.560Z,99808.75
2022-08-18T06:55:01.307Z,99811.28
2022-08-18T06:57:36.698Z,99815.38
2022-08-18T07:00:26.003Z,99820.81
2022-08-18T07:03:02.999Z,99826.06
2022-08-18T07:05:33.892Z,99825.28
2022-08-18T07:08:15.265Z,99826.44
2022-08-18T07:10:49.404Z,99828.31
2022-08-18T07:13:26.564Z,99823.09
2022-08-18T07:15:57.180Z,99825.81
2022-08-18T07:18:30.214Z,99827.97
2022-08-18T07:21:00.555Z,99824.16
2022-08-18T07:23:34.592Z,99827.66
2022-08-18T07:26:10.874Z,99824.47
2022-08-18T07:28:44.573Z,99826.63
2022-08-18T07:31:26.253Z,99825.78
2022-08-18T07:34:02.753Z,99828.59
2022-08-18T07:36:36.866Z,99824.53
2022-08-18T07:39:12.193Z,99826.56
2022-08-18T07:41:45.780Z,99822.81
2022-08-18T07:44:21.753Z,99822.25
2022-08-18T07:47:01.436Z,99820.81
2022-08-18T07:49:36.143Z,99821.66
2022-08-18T07:52:19.961Z,99830.69
2022-08-18T07:55:05.437Z,99832.50
2022-08-18T07:57:43.587Z,99824.03
2022-08-18T08:00:35.062Z,99828.00
2022-08-18T08:03:10.229Z,99827.88
2022-08-18T08:05:50.272Z,99830.34
2022-08-18T08:08:25.493Z,99821.88
2022-08-18T08:11:08.793Z,99825.88
2022-08-18T08:13:57.849Z,99825.50
2022-08-18T08:16:37.642Z,99836.47
2022-08-18T08:19:49.434Z,99838.88
2022-08-18T08:22:23.002Z,99836.47
2022-08-18T08:25:10.737Z,99835.47
2022-08-18T08:28:07.497Z,99840.88
2022-08-18T08:30:44.586Z,99848.84
2022-08-18T08:33:24.953Z,99844.13
2022-08-18T08:36:04.733Z,99838.06
2022-08-18T08:38:45.267Z,99850.91
2022-08-18T08:41:21.145Z,99845.50
2022-08-18T08:43:55.002Z,99847.84
2022-08-18T08:46:30.571Z,99839.63
2022-08-18T08:49:07.713Z,99838.97
2022-08-18T08:51:40.730Z,99841.34
2022-08-18T08:54:18.799Z,99840.84
2022-08-18T08:56:51.526Z,99832.72
2022-08-18T08:59:23.558Z,99837.03
2022-08-18T09:02:02.573Z,99824.78
2022-08-18T09:05:04.888Z,99821.34
2022-08-18T09:07:50.837Z,99826.81
2022-08-18T09:10:53.308Z,99827.81
2022-08-18T09:13:49.417Z,99828.06
2022-08-18T09:16:30.587Z,99825.94
2022-08-18T09:19:17.820Z,99824.75
2022-08-18T09:21:55.492Z,99811.09
2022-08-18T09:24:28.092Z,99804.53
2022-08-18T09:27:16.110Z,99802.81
2022-08-18T09:29:52.652Z,99813.13
2022-08-18T09:32:50.994Z,99811.97
2022-08-18T09:35:46.492Z,99808.28
2022-08-18T09:38:42.943Z,99803.94
2022-08-18T09:41:35.634Z,99804.13
2022-08-18T09:47:01.665Z,99802.28
2022-08-18T09:49:47.938Z,99805.88
2022-08-18T09:52:50.605Z,99812.88
2022-08-18T09:55:42.560Z,99810.75
2022-08-18T09:58:43.237Z,99800.38
2022-08-18T10:01:42.799Z,99807.72
2022-08-18T10:04:36.495Z,99805.41
2022-08-18T10:07:37.025Z,99811.25
2022-08-18T10:11:00.017Z,99804.13
2022-08-18T10:13:25.122Z,99800.63
2022-08-18T10:16:10.804Z,99795.22
2022-08-18T10:18:55.039Z,99799.38
2022-08-18T10:21:31.596Z,99801.22
2022-08-18T10:24:36.484Z,99803.72
2022-08-18T10:27:10.203Z,99801.75
2022-08-18T10:29:59.320Z,99805.50
2022-08-18T10:32:54.454Z,99808.13
2022-08-18T10:35:59.192Z,99813.63
2022-08-18T10:38:47.863Z,99820.81
2022-08-18T10:41:25.692Z,99811.38
2022-08-18T10:43:57.505Z,99812.88
2022-08-18T10:46:32.541Z,99812.09
2022-08-18T10:49:07.149Z,99818.75
2022-08-18T10:52:07.067Z,99828.44
2022-08-18T10:54:50.920Z,99821.22
2022-08-18T10:57:34.111Z,99809.72
2022-08-18T11:00:09.696Z,99822.53
2022-08-18T11:06:05.623Z,99816.13
2022-08-18T11:08:45.259Z,99821.75
2022-08-18T11:11:37.667Z,99820.63
2022-08-18T11:14:20.984Z,99828.81
2022-08-18T11:16:59.048Z,99825.31
2022-08-18T11:19:28.817Z,99815.50
2022-08-18T11:21:58.921Z,99814.06
2022-08-18T11:24:31.637Z,99818.78
2022-08-18T11:27:04.229Z,99808.66
2022-08-18T11:29:41.122Z,99807.44
2022-08-18T11:32:17.944Z,99800.00
2022-08-18T11:34:52.295Z,99790.63
2022-08-18T11:37:28.358Z,99793.38
2022-08-18T11:43:29.894Z,99774.50
2022-08-18T11:46:16.994Z,99775.94
2022-08-18T11:48:54.854Z,99770.38
2022-08-18T11:51:27.068Z,99767.09
2022-08-18T11:54:00.218Z,99758.81
2022-08-18T11:56:35.915Z,99752.66
2022-08-18T11:59:11.626Z,99751.75
2022-08-18T12:01:51.349Z,99756.97
2022-08-18T12:04:30.306Z,99753.31
2022-08-18T12:07:04.547Z,99760.31
2022-08-18T12:12:35.829Z,99754.22
2022-08-18T12:15:24.589Z,99758.88
2022-08-18T12:17:54.383Z,99751.84
2022-08-18T12:20:23.865Z,99743.41
2022-08-18T12:22:54.517Z,99742.00
2022-08-18T12:25:25.735Z,99730.66
2022-08-18T12:27:55.132Z,99728.81
2022-08-18T12:30:25.275Z,99721.13
2022-08-18T12:33:05.705Z,99731.41
2022-08-18T12:35:42.299Z,99723.81
2022-08-18T12:38:13.939Z,99729.13
2022-08-18T12:40:44.797Z,99730.53
2022-08-18T12:43:13.979Z,99720.84
2022-08-18T12:45:45.055Z,99719.59
2022-08-18T12:48:14.089Z,99718.91
2022-08-18T12:53:58.347Z,99724.75
2022-08-18T12:56:25.353Z,99711.31
2022-08-18T12:58:55.681Z,99711.78
2022-08-18T13:01:26.884Z,99714.97
2022-08-18T13:06:59.889Z,99712.09
2022-08-18T13:09:48.200Z,99714.06
2022-08-18T13:12:20.886Z,99709.16
2022-08-18T13:14:51.207Z,99701.16
2022-08-18T13:17:32.543Z,99707.41
2022-08-18T13:20:06.667Z,99706.41
2022-08-18T13:22:40.650Z,99698.72
2022-08-18T13:25:12.563Z,99698.91
2022-08-18T13:27:43.528Z,99695.94
2022-08-18T13:30:31.379Z,99690.03
2022-08-18T13:33:33.862Z,99686.03
2022-08-18T13:35:54.915Z,99682.88
2022-08-18T13:38:27.580Z,99685.13
2022-08-18T13:41:00.456Z,99679.56
2022-08-18T13:43:34.317Z,99676.31
2022-08-18T13:46:06.266Z,99671.72
2022-08-18T13:48:36.923Z,99662.97
2022-08-18T13:51:08.429Z,99666.63
2022-08-18T13:53:50.550Z,99666.03
2022-08-18T13:56:31.558Z,99667.19
2022-08-18T13:59:01.334Z,99665.59
2022-08-18T14:01:44.628Z,99654.41
2022-08-18T14:04:23.197Z,99658.66
2022-08-18T14:06:59.891Z,99648.72
2022-08-18T14:09:37.163Z,99654.00
2022-08-18T14:12:15.795Z,99645.56
2022-08-18T14:14:51.893Z,99651.31
2022-08-18T14:17:22.571Z,99651.31
2022-08-18T14:20:21.173Z,99660.13
2022-08-18T14:23:09.571Z,99660.53
2022-08-18T14:25:55.951Z,99663.34
2022-08-18T14:28:25.388Z,99659.63
2022-08-18T14:30:55.285Z,99667.38
2022-08-18T14:33:34.212Z,99662.38
2022-08-18T14:36:16.812Z,99666.31
2022-08-18T14:38:47.034Z,99674.66
2022-08-18T14:41:25.452Z,99676.13
2022-08-18T14:44:11.886Z,99670.03
2022-08-18T14:46:42.325Z,99671.13
2022-08-18T14:49:28.304Z,99679.69
2022-08-18T14:52:00.799Z,99678.00
2022-08-18T14:54:30.663Z,99680.94
2022-08-18T14:57:01.031Z,99689.25
2022-08-18T14:59:30.986Z,99684.47
2022-08-18T15:02:07.039Z,99688.19
2022-08-18T15:04:56.098Z,99681.13
2022-08-18T15:07:28.514Z,99690.72
2022-08-18T15:10:15.546Z,99687.81
2022-08-18T15:12:45.977Z,99681.13
2022-08-18T15:15:18.077Z,99690.66
2022-08-18T15:17:52.376Z,99686.13
2022-08-18T15:20:24.057Z,99690.72
2022-08-18T15:23:24.863Z,99683.22
2022-08-18T15:25:58.985Z,99685.91
2022-08-18T15:28:28.146Z,99681.06
2022-08-18T15:33:51.158Z,99681.16
2022-08-18T15:36:24.064Z,99672.94
2022-08-18T15:38:59.397Z,99663.78
2022-08-18T15:41:34.821Z,99655.44
2022-08-18T15:44:08.876Z,99658.72
2022-08-18T15:46:40.026Z,99664.06
2022-08-18T15:49:15.000Z,99662.94
2022-08-18T15:51:45.603Z,99663.47
2022-08-18T15:54:20.788Z,99655.13
2022-08-18T15:56:57.857Z,99652.63
2022-08-18T15:59:34.359Z,99641.81
2022-08-18T16:02:11.527Z,99627.66
2022-08-18T16:04:45.024Z,99625.59
2022-08-18T16:07:18.038Z,99620.00
2022-08-18T16:10:02.553Z,99628.75
2022-08-18T16:12:31.700Z,99632.88
2022-08-18T16:15:03.855Z,99641.34
2022-08-18T16:17:36.882Z,99631.66
2022-08-18T16:20:08.370Z,99630.53
2022-08-18T16:22:38.929Z,99640.81
2022-08-18T16:25:10.638Z,99637.63
2022-08-18T16:27:41.945Z,99645.66
2022-08-18T16:30:12.836Z,99646.25
2022-08-18T16:32:42.573Z,99652.03
2022-08-18T16:35:12.674Z,99650.19
2022-08-18T16:37:42.273Z,99653.69
2022-08-18T16:40:15.475Z,99654.09
2022-08-18T16:42:44.651Z,99654.47
2022-08-18T16:45:13.761Z,99665.03
2022-08-18T16:47:42.664Z,99659.38
2022-08-18T16:50:14.735Z,99664.66
2022-08-18T16:52:43.877Z,99665.63
2022-08-18T16:55:14.526Z,99668.81
2022-08-18T16:58:02.414Z,99666.44
2022-08-18T17:00:54.812Z,99675.00
2022-08-18T17:03:41.601Z,99674.47
2022-08-18T17:06:12.717Z,99669.38
2022-08-18T17:08:41.799Z,99678.75
2022-08-18T17:11:14.071Z,99672.66
2022-08-18T17:13:43.808Z,99666.50
2022-08-18T17:16:13.237Z,99660.38
2022-08-18T17:18:42.558Z,99666.69
2022-08-18T17:21:14.758Z,99667.06
2022-08-18T17:23:43.819Z,99661.56
2022-08-18T17:26:34.565Z,99669.34
2022-08-18T17:29:08.253Z,99666.91
2022-08-18T17:31:37.899Z,99669.13
2022-08-18T17:34:12.484Z,99683.81
2022-08-18T17:36:52.577Z,99676.28
2022-08-18T17:39:25.953Z,99671.63
2022-08-18T17:42:13.255Z,99671.31
2022-08-18T17:44:52.023Z,99669.56
2022-08-18T17:47:26.817Z,99669.91
2022-08-18T17:50:27.743Z,99666.09
2022-08-18T17:53:05.682Z,99672.25
2022-08-18T17:55:40.654Z,99676.06
2022-08-18T17:58:18.821Z,99676.84
2022-08-18T18:00:47.542Z,99680.31
2022-08-18T18:03:16.459Z,99672.81
2022-08-18T18:05:49.755Z,99670.31
2022-08-18T18:08:18.890Z,99664.97
2022-08-18T18:11:04.869Z,99661.50
2022-08-18T18:13:36.631Z,99668.38
2022-08-18T18:16:24.234Z,99671.47
2022-08-18T18:18:59.848Z,99682.22
2022-08-18T18:21:57.652Z,99674.19
2022-08-18T18:24:23.971Z,99665.50
2022-08-18T18:26:53.377Z,99660.81
2022-08-18T18:29:32.295Z,99660.47
2022-08-18T18:32:05.877Z,99656.09
2022-08-18T18:34:39.853Z,99661.16
2022-08-18T18:37:27.419Z,99656.63
2022-08-18T18:39:57.796Z,99651.09
2022-08-18T18:42:30.493Z,99650.94
2022-08-18T18:45:02.731Z,99667.59
2022-08-18T18:47:50.050Z,99662.53
2022-08-18T18:50:29.201Z,99662.06
2022-08-18T18:53:12.463Z,99663.06
2022-08-18T18:55:50.321Z,99666.59
2022-08-18T18:58:27.402Z,99671.63
2022-08-18T19:01:04.038Z,99673.97
2022-08-18T19:03:39.700Z,99672.44
2022-08-18T19:06:20.179Z,99670.41
2022-08-18T19:09:00.831Z,99666.22
2022-08-18T19:11:38.791Z,99678.78
2022-08-18T19:14:15.426Z,99681.13
2022-08-18T19:16:55.252Z,99688.03
2022-08-18T19:19:36.709Z,99693.53
2022-08-18T19:22:14.941Z,99683.50
2022-08-18T19:24:55.697Z,99691.69
2022-08-18T19:27:30.356Z,99698.56
2022-08-18T19:30:05.298Z,99706.91
2022-08-18T19:32:44.915Z,99713.59
2022-08-18T19:35:19.621Z,99709.75
2022-08-18T19:38:06.381Z,99707.56
2022-08-18T19:40:48.342Z,99720.97
2022-08-18T19:43:27.829Z,99706.19
2022-08-18T19:46:03.578Z,99725.16
2022-08-18T19:48:41.213Z,99715.75
2022-08-18T19:51:16.152Z,99713.22
2022-08-18T19:54:02.300Z,99700.16
2022-08-18T19:56:49.293Z,99702.81
2022-08-18T19:59:40.459Z,99699.31
2022-08-18T20:02:26.648Z,99701.47
2022-08-18T20:05:16.737Z,99707.69
2022-08-18T20:07:58.871Z,99712.34
2022-08-18T20:10:40.840Z,99711.66
2022-08-18T20:13:27.755Z,99700.56
2022-08-18T20:16:12.610Z,99706.78
2022-08-18T20:18:44.388Z,99704.59
2022-08-18T20:21:45.847Z,99707.56
2022-08-18T20:24:35.772Z,99711.91
2022-08-18T20:27:25.542Z,99712.19
2022-08-18T20:30:17.851Z,99716.97
2022-08-18T20:33:11.657Z,99727.31
2022-08-18T20:35:47.908Z,99720.38
2022-08-18T20:38:35.776Z,99714.91
2022-08-18T20:41:38.050Z,99708.34
2022-08-18T20:44:37.681Z,99703.78
2022-08-18T20:47:24.110Z,99691.19
2022-08-18T20:50:04.751Z,99692.34
2022-08-18T20:52:49.073Z,99695.66
2022-08-18T20:55:30.790Z,99691.91
2022-08-18T20:58:08.333Z,99699.25
2022-08-18T21:00:46.775Z,99698.19
2022-08-18T21:03:21.130Z,99699.34
2022-08-18T21:05:57.190Z,99695.00
2022-08-18T21:08:29.108Z,99685.81
2022-08-18T21:11:02.352Z,99679.63
2022-08-18T21:13:36.332Z,99677.66
2022-08-18T21:16:05.271Z,99666.66
2022-08-18T21:18:35.236Z,99663.78
2022-08-18T21:21:07.544Z,99653.47
2022-08-18T21:23:41.401Z,99650.31
2022-08-18T21:26:16.988Z,99641.66
2022-08-18T21:28:49.865Z,99646.22
2022-08-18T21:31:41.676Z,99651.94
2022-08-18T21:34:18.739Z,99655.31
2022-08-18T21:36:54.855Z,99655.31
2022-08-18T21:39:24.102Z,99648.28
2022-08-18T21:41:57.015Z,99649.97
2022-08-18T21:44:30.590Z,99650.13
2022-08-18T21:47:06.654Z,99645.91
2022-08-18T21:49:35.614Z,99645.25
2022-08-18T21:52:05.251Z,99641.88
2022-08-18T21:54:35.707Z,99638.84
2022-08-18T21:57:22.872Z,99647.88
2022-08-18T22:00:19.888Z,99648.16
2022-08-18T22:02:52.270Z,99636.09
2022-08-18T22:05:58.752Z,99629.72
2022-08-18T22:08:23.820Z,99629.88
2022-08-18T22:12:00.988Z,99624.66
2022-08-18T22:14:54.275Z,99627.66
2022-08-18T22:17:33.806Z,99628.66
2022-08-18T22:20:48.705Z,99627.97
2022-08-18T22:23:55.576Z,99628.44
2022-08-18T22:26:31.956Z,99645.63
2022-08-18T22:29:03.567Z,99640.63
2022-08-18T22:31:36.917Z,99643.59
2022-08-18T22:34:09.456Z,99642.38
2022-08-18T22:36:41.470Z,99647.78
2022-08-18T22:39:13.451Z,99639.97
2022-08-18T22:41:46.429Z,99641.22
2022-08-18T22:44:15.605Z,99639.31
2022-08-18T22:46:45.784Z,99634.56
2022-08-18T22:49:14.622Z,99634.47
2022-08-18T22:51:45.206Z,99633.56
2022-08-18T22:54:15.071Z,99630.78
2022-08-18T22:56:54.063Z,99632.25
2022-08-18T22:59:26.846Z,99628.31
2022-08-18T23:01:59.699Z,99631.97
2022-08-18T23:04:29.264Z,99640.28
2022-08-18T23:06:59.333Z,99640.88
2022-08-18T23:09:32.563Z,99636.31
2022-08-18T23:12:05.895Z,99637.00
2022-08-18T23:14:35.756Z,99641.00
2022-08-18T23:17:07.441Z,99653.50
2022-08-18T23:19:36.000Z,99655.63
2022-08-18T23:22:06.796Z,99651.25
2022-08-18T23:24:36.647Z,99668.13
2022-08-18T23:27:06.583Z,99653.91
2022-08-18T23:29:35.801Z,99668.13
2022-08-18T23:32:07.044Z,99655.22
2022-08-18T23:34:38.031Z,99652.84
2022-08-18T23:37:08.003Z,99646.81
2022-08-18T23:39:38.534Z,99638.09
2022-08-18T23:42:13.387Z,99640.09
2022-08-18T23:44:43.460Z,99643.03
2022-08-18T23:47:13.599Z,99644.59
2022-08-18T23:49:42.570Z,99644.38
2022-08-18T23:52:11.312Z,99647.47
2022-08-18T23:54:39.939Z,99638.91
2022-08-18T23:57:08.823Z,99642.13
2022-08-18T23:59:37.828Z,99635.41
